createdAt,value
2023-01-20T00:01:30.461Z,98088.50
2023-01-20T00:03:57.721Z,98079.91
2023-01-20T00:06:27.799Z,98094.47
2023-01-20T00:09:04.804Z,98092.75
2023-01-20T00:11:32.265Z,98093.75
2023-01-20T00:14:01.272Z,98097.13
2023-01-20T00:16:28.936Z,98103.19
2023-01-20T00:18:55.816Z,98102.47
2023-01-20T00:21:22.480Z,98107.59
2023-01-20T00:23:50.074Z,98105.91
2023-01-20T00:26:22.604Z,98108.50
2023-01-20T00:28:52.759Z,98109.44
2023-01-20T00:31:22.210Z,98115.44
2023-01-20T00:33:51.061Z,98114.53
2023-01-20T00:36:19.654Z,98115.41
2023-01-20T00:38:47.268Z,98106.75
2023-01-20T00:41:14.382Z,98117.91
2023-01-20T00:43:41.084Z,98122.13
2023-01-20T00:46:08.347Z,98127.28
2023-01-20T00:48:35.698Z,98124.69
2023-01-20T00:51:02.632Z,98129.06
2023-01-20T00:53:29.213Z,98134.28
2023-01-20T00:55:55.806Z,98135.19
2023-01-20T00:58:22.410Z,98143.75
2023-01-20T01:00:50.870Z,98146.28
2023-01-20T01:03:17.956Z,98146.16
2023-01-20T01:05:45.362Z,98156.47
2023-01-20T01:08:12.432Z,98150.41
2023-01-20T01:10:40.316Z,98160.06
2023-01-20T01:13:07.595Z,98162.50
2023-01-20T01:15:34.393Z,98168.44
2023-01-20T01:18:01.999Z,98163.16
2023-01-20T01:20:29.802Z,98174.41
2023-01-20T01:22:56.663Z,98171.03
2023-01-20T01:25:23.281Z,98172.75
2023-01-20T01:27:49.832Z,98173.50
2023-01-20T01:30:16.634Z,98178.59
2023-01-20T01:32:43.244Z,98185.41
2023-01-20T01:35:09.931Z,98185.47
2023-01-20T01:37:36.691Z,98185.47
2023-01-20T01:40:03.705Z,98192.34
2023-01-20T01:42:30.291Z,98190.81
2023-01-20T01:45:12.624Z,98187.34
2023-01-20T01:47:54.463Z,98188.97
2023-01-20T01:50:33.147Z,98188.94
2023-01-20T01:53:00.308Z,98192.28
2023-01-20T01:55:33.567Z,98200.28
2023-01-20T01:58:01.772Z,98196.47
2023-01-20T02:00:28.704Z,98210.97
2023-01-20T02:02:56.296Z,98211.19
2023-01-20T02:05:25.654Z,98204.47
2023-01-20T02:07:52.767Z,98205.16
2023-01-20T02:10:19.434Z,98214.41
2023-01-20T02:12:49.691Z,98205.16
2023-01-20T02:15:17.899Z,98211.00
2023-01-20T02:17:58.903Z,98215.16
2023-01-20T02:20:56.510Z,98225.31
2023-01-20T02:23:48.091Z,98222.59
2023-01-20T02:26:29.705Z,98226.25
2023-01-20T02:29:14.654Z,98234.88
2023-01-20T02:31:59.698Z,98233.09
2023-01-20T02:34:32.285Z,98235.56
2023-01-20T02:37:22.396Z,98238.00
2023-01-20T02:40:17.174Z,98237.91
2023-01-20T02:42:59.907Z,98237.94
2023-01-20T02:45:37.909Z,98241.25
2023-01-20T02:48:14.863Z,98240.31
2023-01-20T02:50:53.753Z,98245.41
2023-01-20T02:53:21.910Z,98238.47
2023-01-20T02:55:51.293Z,98240.97
2023-01-20T02:59:05.432Z,98238.38
2023-01-20T03:01:42.497Z,98251.16
2023-01-20T03:04:13.527Z,98243.34
2023-01-20T03:06:47.167Z,98249.31
2023-01-20T03:09:18.809Z,98243.28
2023-01-20T03:11:52.201Z,98247.53
2023-01-20T03:14:19.330Z,98250.06
2023-01-20T03:16:48.312Z,98247.41
2023-01-20T03:19:20.202Z,98257.66
2023-01-20T03:21:47.429Z,98254.22
2023-01-20T03:24:14.083Z,98261.09
2023-01-20T03:26:40.674Z,98272.38
2023-01-20T03:29:11.479Z,98264.56
2023-01-20T03:31:52.530Z,98269.78
2023-01-20T03:34:22.621Z,98274.94
2023-01-20T03:36:50.316Z,98274.09
2023-01-20T03:39:17.706Z,98277.69
2023-01-20T03:42:10.564Z,98282.78
2023-01-20T03:44:46.383Z,98290.44
2023-01-20T03:47:31.840Z,98297.34
2023-01-20T03:50:10.581Z,98287.19
2023-01-20T03:52:59.104Z,98293.16
2023-01-20T03:55:37.717Z,98298.25
2023-01-20T03:58:12.245Z,98305.03
2023-01-20T04:00:44.549Z,98295.56
2023-01-20T04:03:21.572Z,98303.34
2023-01-20T04:05:49.721Z,98311.28
2023-01-20T04:08:19.301Z,98314.66
2023-01-20T04:10:48.726Z,98320.59
2023-01-20T04:13:16.262Z,98318.88
2023-01-20T04:15:45.657Z,98322.34
2023-01-20T04:18:16.958Z,98318.00
2023-01-20T04:20:46.361Z,98314.53
2023-01-20T04:23:24.248Z,98318.88
2023-01-20T04:25:50.768Z,98323.16
2023-01-20T04:28:17.353Z,98313.78
2023-01-20T04:30:44.022Z,98322.38
2023-01-20T04:33:10.664Z,98313.78
2023-01-20T04:35:37.262Z,98325.81
2023-01-20T04:38:03.894Z,98331.84
2023-01-20T04:40:30.597Z,98343.91
2023-01-20T04:42:57.209Z,98341.53
2023-01-20T04:45:23.803Z,98344.06
2023-01-20T04:47:50.536Z,98340.59
2023-01-20T04:50:17.311Z,98339.72
2023-01-20T04:52:44.064Z,98343.16
2023-01-20T04:55:11.744Z,98343.97
2023-01-20T04:57:38.320Z,98340.53
2023-01-20T05:00:07.288Z,98356.00
2023-01-20T05:02:33.932Z,98350.84
2023-01-20T05:05:00.487Z,98361.13
2023-01-20T05:07:27.081Z,98362.84
2023-01-20T05:09:53.662Z,98357.75
2023-01-20T05:12:20.174Z,98363.78
2023-01-20T05:14:46.749Z,98357.75
2023-01-20T05:17:13.322Z,98368.03
2023-01-20T05:19:40.882Z,98364.63
2023-01-20T05:22:07.474Z,98363.75
2023-01-20T05:24:34.067Z,98363.75
2023-01-20T05:27:01.611Z,98361.16
2023-01-20T05:29:28.929Z,98370.69
2023-01-20T05:31:55.893Z,98370.72
2023-01-20T05:34:22.736Z,98380.16
2023-01-20T05:36:53.961Z,98381.94
2023-01-20T05:39:21.120Z,98388.84
2023-01-20T05:41:48.495Z,98385.56
2023-01-20T05:44:16.485Z,98389.47
2023-01-20T05:46:43.278Z,98388.50
2023-01-20T05:49:13.086Z,98389.44
2023-01-20T05:51:39.746Z,98390.16
2023-01-20T05:54:06.577Z,98394.59
2023-01-20T05:56:33.236Z,98397.88
2023-01-20T05:59:00.034Z,98388.31
2023-01-20T06:01:26.661Z,98401.25
2023-01-20T06:03:53.304Z,98400.72
2023-01-20T06:06:19.954Z,98400.69
2023-01-20T06:08:46.607Z,98409.19
2023-01-20T06:11:14.835Z,98420.31
2023-01-20T06:13:41.495Z,98416.91
2023-01-20T06:16:08.102Z,98414.31
2023-01-20T06:18:35.189Z,98419.38
2023-01-20T06:21:01.959Z,98427.00
2023-01-20T06:23:29.920Z,98416.56
2023-01-20T06:25:59.549Z,98419.06
2023-01-20T06:28:26.424Z,98430.22
2023-01-20T06:31:00.091Z,98425.88
2023-01-20T06:33:26.939Z,98437.84
2023-01-20T06:35:55.606Z,98442.13
2023-01-20T06:38:28.373Z,98445.56
2023-01-20T06:40:59.858Z,98455.81
2023-01-20T06:43:28.943Z,98450.63
2023-01-20T06:46:02.755Z,98451.50
2023-01-20T06:48:30.382Z,98454.19
2023-01-20T06:51:05.177Z,98467.06
2023-01-20T06:53:32.047Z,98461.88
2023-01-20T06:56:00.196Z,98471.25
2023-01-20T06:58:29.292Z,98466.97
2023-01-20T07:00:57.394Z,98467.81
2023-01-20T07:03:24.249Z,98470.38
2023-01-20T07:06:00.712Z,98475.53
2023-01-20T07:08:28.057Z,98480.69
2023-01-20T07:10:54.642Z,98479.00
2023-01-20T07:13:21.388Z,98491.16
2023-01-20T07:15:48.309Z,98486.81
2023-01-20T07:18:15.026Z,98501.44
2023-01-20T07:20:43.379Z,98499.66
2023-01-20T07:23:09.943Z,98494.44
2023-01-20T07:25:38.094Z,98500.44
2023-01-20T07:28:05.045Z,98503.13
2023-01-20T07:30:31.627Z,98505.72
2023-01-20T07:32:58.238Z,98514.22
2023-01-20T07:35:24.967Z,98514.22
2023-01-20T07:37:51.546Z,98509.88
2023-01-20T07:40:18.285Z,98513.34
2023-01-20T07:42:44.963Z,98524.53
2023-01-20T07:45:11.726Z,98528.97
2023-01-20T07:47:38.307Z,98527.16
2023-01-20T07:50:05.418Z,98532.38
2023-01-20T07:52:31.957Z,98526.34
2023-01-20T07:54:58.568Z,98536.66
2023-01-20T07:57:25.238Z,98539.31
2023-01-20T07:59:51.835Z,98538.47
2023-01-20T08:02:18.417Z,98533.25
2023-01-20T08:04:45.032Z,98542.75
2023-01-20T08:07:11.685Z,98547.84
2023-01-20T08:09:38.258Z,98560.78
2023-01-20T08:12:05.277Z,98563.28
2023-01-20T08:14:31.835Z,98559.75
2023-01-20T08:17:00.269Z,98564.88
2023-01-20T08:19:31.476Z,98568.22
2023-01-20T08:21:58.152Z,98575.03
2023-01-20T08:24:24.701Z,98573.31
2023-01-20T08:26:51.502Z,98574.09
2023-01-20T08:29:18.264Z,98580.94
2023-01-20T08:31:45.317Z,98575.78
2023-01-20T08:34:12.413Z,98573.22
2023-01-20T08:36:41.134Z,98583.47
2023-01-20T08:39:09.614Z,98590.28
2023-01-20T08:41:38.514Z,98592.00
2023-01-20T08:44:06.724Z,98596.16
2023-01-20T08:46:33.602Z,98598.69
2023-01-20T08:49:00.546Z,98606.38
2023-01-20T08:51:31.940Z,98605.50
2023-01-20T08:53:59.201Z,98602.94
2023-01-20T08:56:26.563Z,98605.47
2023-01-20T08:58:54.028Z,98602.91
2023-01-20T09:01:23.437Z,98607.16
2023-01-20T09:04:04.193Z,98606.19
2023-01-20T09:06:37.489Z,98604.38
2023-01-20T09:09:04.714Z,98612.00
2023-01-20T09:11:31.704Z,98603.31
2023-01-20T09:13:58.406Z,98612.00
2023-01-20T09:16:25.039Z,98612.75
2023-01-20T09:18:51.595Z,98617.84
2023-01-20T09:21:18.177Z,98615.16
2023-01-20T09:23:47.923Z,98621.16
2023-01-20T09:26:22.861Z,98623.78
2023-01-20T09:29:09.772Z,98625.56
2023-01-20T09:31:45.846Z,98630.84
2023-01-20T09:34:21.417Z,98627.38
2023-01-20T09:36:56.692Z,98630.84
2023-01-20T09:39:42.506Z,98626.47
2023-01-20T09:42:44.538Z,98634.88
2023-01-20T09:45:34.280Z,98634.97
2023-01-20T09:48:15.522Z,98636.84
2023-01-20T09:51:12.480Z,98642.25
2023-01-20T09:54:00.138Z,98637.94
2023-01-20T09:56:28.713Z,98641.19
2023-01-20T09:59:05.017Z,98647.28
2023-01-20T10:01:43.419Z,98643.88
2023-01-20T10:04:20.306Z,98642.06
2023-01-20T10:06:57.463Z,98649.22
2023-01-20T10:09:49.344Z,98646.69
2023-01-20T10:12:31.031Z,98648.31
2023-01-20T10:15:13.111Z,98640.75
2023-01-20T10:17:49.923Z,98645.69
2023-01-20T10:20:28.101Z,98659.50
2023-01-20T10:22:57.339Z,98648.41
2023-01-20T10:25:29.048Z,98646.63
2023-01-20T10:27:59.253Z,98652.56
2023-01-20T10:30:33.517Z,98640.53
2023-01-20T10:33:16.255Z,98638.72
2023-01-20T10:35:47.400Z,98645.75
2023-01-20T10:38:26.572Z,98635.31
2023-01-20T10:41:03.497Z,98643.09
2023-01-20T10:43:30.906Z,98644.81
2023-01-20T10:46:31.704Z,98638.88
2023-01-20T10:49:07.476Z,98635.31
2023-01-20T10:51:50.458Z,98641.28
2023-01-20T10:54:39.719Z,98650.00
2023-01-20T10:57:10.781Z,98648.22
2023-01-20T10:59:41.757Z,98654.16
2023-01-20T11:02:16.953Z,98658.38
2023-01-20T11:04:45.880Z,98656.59
2023-01-20T11:07:18.132Z,98662.72
2023-01-20T11:09:47.776Z,98648.06
2023-01-20T11:12:22.686Z,98645.34
2023-01-20T11:14:49.970Z,98651.47
2023-01-20T11:17:20.451Z,98649.69
2023-01-20T11:19:58.119Z,98653.09
2023-01-20T11:22:36.951Z,98657.44
2023-01-20T11:25:05.479Z,98658.06
2023-01-20T11:27:37.562Z,98649.69
2023-01-20T11:30:09.043Z,98651.38
2023-01-20T11:32:40.048Z,98653.31
2023-01-20T11:35:24.589Z,98653.84
2023-01-20T11:37:52.128Z,98653.66
2023-01-20T11:40:25.219Z,98654.53
2023-01-20T11:42:53.314Z,98654.53
2023-01-20T11:45:35.088Z,98656.34
2023-01-20T11:48:16.440Z,98653.72
2023-01-20T11:50:54.462Z,98661.59
2023-01-20T11:53:26.527Z,98650.25
2023-01-20T11:56:03.183Z,98650.19
2023-01-20T11:58:48.320Z,98648.53
2023-01-20T12:01:26.124Z,98645.84
2023-01-20T12:04:14.763Z,98652.03
2023-01-20T12:06:56.974Z,98650.34
2023-01-20T12:09:30.389Z,98649.44
2023-01-20T12:12:06.506Z,98648.50
2023-01-20T12:14:49.228Z,98638.97
2023-01-20T12:17:38.175Z,98654.41
2023-01-20T12:20:30.769Z,98653.53
2023-01-20T12:23:21.321Z,98651.94
2023-01-20T12:26:00.965Z,98647.66
2023-01-20T12:29:04.802Z,98648.41
2023-01-20T12:31:32.609Z,98643.16
2023-01-20T12:34:11.495Z,98649.19
2023-01-20T12:36:53.239Z,98638.84
2023-01-20T12:39:44.217Z,98642.19
2023-01-20T12:42:10.801Z,98637.97
2023-01-20T12:44:52.941Z,98639.59
2023-01-20T12:47:31.593Z,98640.41
2023-01-20T12:50:04.362Z,98640.63
2023-01-20T12:52:48.643Z,98625.09
2023-01-20T12:55:33.523Z,98629.31
2023-01-20T12:58:04.284Z,98637.03
2023-01-20T13:01:16.983Z,98637.88
2023-01-20T13:04:17.233Z,98634.44
2023-01-20T13:07:05.957Z,98631.09
2023-01-20T13:09:49.852Z,98628.31
2023-01-20T13:12:38.344Z,98629.13
2023-01-20T13:15:26.382Z,98626.28
2023-01-20T13:18:05.092Z,98622.19
2023-01-20T13:20:32.107Z,98627.44
2023-01-20T13:23:02.893Z,98621.47
2023-01-20T13:25:30.442Z,98614.66
2023-01-20T13:27:57.304Z,98618.78
2023-01-20T13:30:48.324Z,98618.91
2023-01-20T13:33:23.180Z,98617.09
2023-01-20T13:35:50.686Z,98616.13
2023-01-20T13:38:27.926Z,98617.00
2023-01-20T13:40:56.361Z,98613.56
2023-01-20T13:43:23.056Z,98619.59
2023-01-20T13:46:09.685Z,98612.78
2023-01-20T13:48:38.285Z,98616.13
2023-01-20T13:51:29.793Z,98617.28
2023-01-20T13:54:25.244Z,98618.78
2023-01-20T13:56:52.928Z,98616.06
2023-01-20T13:59:19.466Z,98611.09
2023-01-20T14:01:46.186Z,98600.63
2023-01-20T14:04:17.148Z,98610.09
2023-01-20T14:06:52.156Z,98610.97
2023-01-20T14:09:24.097Z,98614.38
2023-01-20T14:11:52.749Z,98621.09
2023-01-20T14:14:22.230Z,98621.03
2023-01-20T14:16:49.688Z,98627.00
2023-01-20T14:19:27.591Z,98625.97
2023-01-20T14:21:56.596Z,98622.56
2023-01-20T14:24:38.165Z,98624.63
2023-01-20T14:27:19.683Z,98625.56
2023-01-20T14:29:47.802Z,98618.59
2023-01-20T14:32:22.553Z,98615.09
2023-01-20T14:34:50.160Z,98625.31
2023-01-20T14:37:37.360Z,98622.72
2023-01-20T14:40:10.082Z,98612.38
2023-01-20T14:42:38.686Z,98615.03
2023-01-20T14:45:23.457Z,98625.44
2023-01-20T14:47:51.888Z,98618.41
2023-01-20T14:50:19.863Z,98615.84
2023-01-20T14:52:46.815Z,98622.78
2023-01-20T14:55:36.691Z,98631.59
2023-01-20T14:58:20.696Z,98635.88
2023-01-20T15:00:49.750Z,98634.09
2023-01-20T15:03:26.033Z,98640.00
2023-01-20T15:06:20.665Z,98642.72
2023-01-20T15:09:04.727Z,98640.09
2023-01-20T15:11:32.857Z,98641.03
2023-01-20T15:14:02.435Z,98645.38
2023-01-20T15:16:35.915Z,98640.09
2023-01-20T15:19:18.569Z,98648.03
2023-01-20T15:21:53.983Z,98640.25
2023-01-20T15:24:21.587Z,98644.63
2023-01-20T15:26:51.053Z,98643.16
2023-01-20T15:29:20.831Z,98643.91
2023-01-20T15:31:48.217Z,98639.59
2023-01-20T15:34:14.861Z,98655.81
2023-01-20T15:36:41.558Z,98649.75
2023-01-20T15:39:13.009Z,98651.44
2023-01-20T15:41:39.577Z,98649.81
2023-01-20T15:44:06.221Z,98654.22
2023-01-20T15:46:33.323Z,98652.53
2023-01-20T15:49:00.268Z,98653.34
2023-01-20T15:51:26.998Z,98655.19
2023-01-20T15:53:53.548Z,98664.63
2023-01-20T15:56:24.282Z,98668.84
2023-01-20T15:58:51.577Z,98660.31
2023-01-20T16:01:23.909Z,98667.19
2023-01-20T16:03:51.885Z,98668.78
2023-01-20T16:06:20.378Z,98658.50
2023-01-20T16:08:49.315Z,98662.78
2023-01-20T16:11:17.978Z,98667.09
2023-01-20T16:13:45.459Z,98667.06
2023-01-20T16:16:24.023Z,98661.84
2023-01-20T16:18:50.980Z,98672.13
2023-01-20T16:21:19.505Z,98667.94
2023-01-20T16:23:46.122Z,98673.06
2023-01-20T16:26:22.765Z,98670.53
2023-01-20T16:28:55.144Z,98671.38
2023-01-20T16:31:23.013Z,98673.91
2023-01-20T16:33:49.730Z,98674.69
2023-01-20T16:36:18.794Z,98664.44
2023-01-20T16:38:46.010Z,98678.25
2023-01-20T16:41:28.005Z,98674.84
2023-01-20T16:43:55.626Z,98675.72
2023-01-20T16:46:24.868Z,98678.38
2023-01-20T16:48:51.940Z,98675.78
2023-01-20T16:51:21.852Z,98681.75
2023-01-20T16:53:49.184Z,98682.63
2023-01-20T16:56:25.423Z,98685.25
2023-01-20T16:58:53.810Z,98682.72
2023-01-20T17:01:24.470Z,98686.13
2023-01-20T17:03:52.796Z,98686.94
2023-01-20T17:06:22.641Z,98690.47
2023-01-20T17:08:51.958Z,98681.06
2023-01-20T17:11:28.206Z,98683.47
2023-01-20T17:13:55.840Z,98690.34
2023-01-20T17:16:23.500Z,98689.59
2023-01-20T17:18:55.718Z,98693.88
2023-01-20T17:21:23.451Z,98699.00
2023-01-20T17:23:59.729Z,98694.75
2023-01-20T17:26:26.605Z,98687.75
2023-01-20T17:28:58.577Z,98700.63
2023-01-20T17:31:25.957Z,98697.25
2023-01-20T17:33:52.683Z,98695.56
2023-01-20T17:36:19.326Z,98689.53
2023-01-20T17:38:46.170Z,98692.97
2023-01-20T17:41:14.391Z,98698.97
2023-01-20T17:43:48.404Z,98699.78
2023-01-20T17:46:19.384Z,98699.81
2023-01-20T17:48:46.974Z,98703.28
2023-01-20T17:51:19.041Z,98705.78
2023-01-20T17:53:45.989Z,98708.38
2023-01-20T17:56:13.952Z,98703.22
2023-01-20T17:58:42.480Z,98703.22
2023-01-20T18:01:11.423Z,98704.03
2023-01-20T18:03:42.791Z,98715.28
2023-01-20T18:06:12.051Z,98712.72
2023-01-20T18:08:38.926Z,98709.19
2023-01-20T18:11:19.232Z,98713.53
2023-01-20T18:13:47.517Z,98709.19
2023-01-20T18:16:16.674Z,98708.31
2023-01-20T18:18:45.380Z,98713.47
2023-01-20T18:21:23.147Z,98708.28
2023-01-20T18:23:51.170Z,98715.22
2023-01-20T18:26:21.323Z,98704.91
2023-01-20T18:28:48.404Z,98716.94
2023-01-20T18:31:20.217Z,98710.94
2023-01-20T18:33:49.243Z,98710.97
2023-01-20T18:36:25.072Z,98713.53
2023-01-20T18:38:52.824Z,98709.31
2023-01-20T18:41:19.888Z,98706.63
2023-01-20T18:43:47.189Z,98710.06
2023-01-20T18:46:14.409Z,98708.31
2023-01-20T18:48:42.649Z,98709.13
2023-01-20T18:51:14.980Z,98710.00
2023-01-20T18:53:43.139Z,98713.41
2023-01-20T18:56:11.937Z,98702.13
2023-01-20T18:58:39.107Z,98702.25
2023-01-20T19:01:08.064Z,98704.84
2023-01-20T19:03:35.977Z,98703.91
2023-01-20T19:06:11.291Z,98708.38
2023-01-20T19:08:39.423Z,98709.19
2023-01-20T19:11:17.674Z,98705.78
2023-01-20T19:13:45.466Z,98704.06
2023-01-20T19:16:13.102Z,98704.88
2023-01-20T19:18:41.233Z,98706.66
2023-01-20T19:21:11.077Z,98700.63
2023-01-20T19:23:37.944Z,98710.06
2023-01-20T19:26:10.867Z,98708.31
2023-01-20T19:28:38.341Z,98710.06
2023-01-20T19:31:08.869Z,98710.06
2023-01-20T19:33:36.134Z,98712.66
2023-01-20T19:36:05.336Z,98714.41
2023-01-20T19:38:33.832Z,98717.81
2023-01-20T19:41:11.729Z,98719.47
2023-01-20T19:43:39.118Z,98714.31
2023-01-20T19:46:15.435Z,98707.41
2023-01-20T19:48:42.409Z,98714.28
2023-01-20T19:51:14.323Z,98715.13
2023-01-20T19:53:42.447Z,98718.53
2023-01-20T19:56:11.861Z,98716.00
2023-01-20T19:58:39.613Z,98718.53
2023-01-20T20:01:28.107Z,98719.38
2023-01-20T20:03:55.926Z,98728.84
2023-01-20T20:06:32.023Z,98712.47
2023-01-20T20:09:07.460Z,98721.91
2023-01-20T20:11:34.585Z,98710.75
2023-01-20T20:14:03.307Z,98721.03
2023-01-20T20:16:32.376Z,98721.09
2023-01-20T20:18:59.541Z,98725.38
2023-01-20T20:21:27.287Z,98728.84
2023-01-20T20:23:56.208Z,98729.69
2023-01-20T20:26:25.093Z,98737.47
2023-01-20T20:28:51.672Z,98737.38
2023-01-20T20:31:18.946Z,98733.91
2023-01-20T20:33:49.019Z,98734.72
2023-01-20T20:36:15.779Z,98739.97
2023-01-20T20:38:42.592Z,98739.91
2023-01-20T20:41:10.057Z,98733.00
2023-01-20T20:43:38.077Z,98738.19
2023-01-20T20:46:07.009Z,98746.72
2023-01-20T20:48:35.305Z,98745.06
2023-01-20T20:51:10.586Z,98742.56
2023-01-20T20:53:37.400Z,98744.25
2023-01-20T20:56:14.971Z,98745.06
2023-01-20T20:58:59.490Z,98735.50
2023-01-20T21:01:29.400Z,98738.06
2023-01-20T21:03:57.897Z,98740.66
2023-01-20T21:06:25.191Z,98738.94
2023-01-20T21:08:52.579Z,98744.91
2023-01-20T21:11:20.490Z,98747.53
2023-01-20T21:13:49.203Z,98749.16
2023-01-20T21:16:20.802Z,98748.34
2023-01-20T21:18:48.384Z,98754.38
2023-01-20T21:21:19.508Z,98750.09
2023-01-20T21:23:54.834Z,98752.69
2023-01-20T21:26:22.980Z,98754.34
2023-01-20T21:28:49.637Z,98756.03
2023-01-20T21:31:21.628Z,98754.34
2023-01-20T21:33:53.580Z,98760.38
2023-01-20T21:36:20.686Z,98769.03
2023-01-20T21:38:47.412Z,98768.16
2023-01-20T21:41:15.256Z,98773.44
2023-01-20T21:44:02.944Z,98780.38
2023-01-20T21:46:38.252Z,98776.03
2023-01-20T21:49:25.048Z,98781.13
2023-01-20T21:52:09.891Z,98779.44
2023-01-20T21:54:36.600Z,98776.03
2023-01-20T21:57:03.235Z,98776.91
2023-01-20T21:59:30.220Z,98782.91
2023-01-20T22:01:56.886Z,98774.28
2023-01-20T22:04:23.455Z,98779.38
2023-01-20T22:06:50.090Z,98775.91
2023-01-20T22:09:16.627Z,98776.72
2023-01-20T22:11:43.200Z,98780.13
2023-01-20T22:14:10.385Z,98770.59
2023-01-20T22:16:37.015Z,98775.78
2023-01-20T22:19:03.675Z,98775.78
2023-01-20T22:21:30.289Z,98774.94
2023-01-20T22:23:56.898Z,98775.78
2023-01-20T22:26:23.675Z,98786.06
2023-01-20T22:28:50.244Z,98787.75
2023-01-20T22:31:21.799Z,98793.75
2023-01-20T22:33:56.079Z,98801.53
2023-01-20T22:36:24.206Z,98795.47
2023-01-20T22:38:52.245Z,98791.16
2023-01-20T22:41:20.132Z,98791.16
2023-01-20T22:43:48.172Z,98794.56
2023-01-20T22:46:16.688Z,98800.53
2023-01-20T22:48:43.928Z,98803.13
2023-01-20T22:51:13.166Z,98816.03
2023-01-20T22:53:40.711Z,98811.78
2023-01-20T22:56:14.149Z,98815.19
2023-01-20T22:58:41.458Z,98815.19
2023-01-20T23:01:26.035Z,98812.63
2023-01-20T23:03:57.146Z,98816.91
2023-01-20T23:06:24.231Z,98814.38
2023-01-20T23:08:51.147Z,98822.97
2023-01-20T23:11:19.606Z,98816.16
2023-01-20T23:13:46.774Z,98818.75
2023-01-20T23:16:18.989Z,98823.09
2023-01-20T23:18:46.387Z,98817.09
2023-01-20T23:21:13.254Z,98823.06
2023-01-20T23:23:39.968Z,98818.75
2023-01-20T23:26:28.493Z,98818.72
2023-01-20T23:28:56.242Z,98823.91
2023-01-20T23:31:24.725Z,98819.63
2023-01-20T23:33:53.012Z,98825.66
2023-01-20T23:36:22.298Z,98822.25
2023-01-20T23:38:48.949Z,98832.63
2023-01-20T23:41:15.800Z,98829.13
2023-01-20T23:43:42.781Z,98840.38
2023-01-20T23:46:10.299Z,98842.06
2023-01-20T23:48:38.041Z,98841.19
2023-01-20T23:51:06.467Z,98842.91
2023-01-20T23:53:36.188Z,98841.22
2023-01-20T23:56:05.555Z,98849.84
2023-01-20T23:58:32.532Z,98844.66
